createdAt,value
2022-09-14T00:02:14.638Z,2.83
2022-09-14T00:04:43.912Z,2.80
2022-09-14T00:07:18.537Z,3.00
2022-09-14T00:09:55.532Z,3.20
2022-09-14T00:12:25.014Z,4.17
2022-09-14T00:14:59.679Z,4.73
2022-09-14T00:17:28.073Z,6.13
2022-09-14T00:20:09.616Z,6.37
2022-09-14T00:22:38.232Z,7.00
2022-09-14T00:25:15.484Z,6.90
2022-09-14T00:27:43.894Z,6.20
2022-09-14T00:30:20.485Z,6.13
2022-09-14T00:32:49.034Z,6.00
2022-09-14T00:35:24.526Z,5.67
2022-09-14T00:37:52.968Z,4.77
2022-09-14T00:40:29.803Z,4.73
2022-09-14T00:42:58.225Z,4.10
2022-09-14T00:45:33.754Z,4.00
2022-09-14T00:48:02.265Z,4.27
2022-09-14T00:50:39.567Z,3.27
2022-09-14T00:53:08.217Z,3.50
2022-09-14T00:55:44.669Z,3.43
2022-09-14T00:58:13.765Z,3.10
2022-09-14T01:00:49.745Z,3.07
2022-09-14T01:03:19.922Z,3.07
2022-09-14T01:06:05.739Z,3.23
2022-09-14T01:08:47.819Z,3.20
2022-09-14T01:11:35.725Z,3.63
2022-09-14T01:14:12.346Z,3.83
2022-09-14T01:16:56.690Z,3.73
2022-09-14T01:19:57.579Z,3.77
2022-09-14T01:22:41.624Z,4.30
2022-09-14T01:25:22.295Z,4.77
2022-09-14T01:27:59.696Z,4.67
2022-09-14T01:30:30.084Z,4.33
2022-09-14T01:33:13.749Z,4.63
2022-09-14T01:35:47.705Z,5.00
2022-09-14T01:38:27.731Z,4.53
2022-09-14T01:40:57.310Z,5.20
2022-09-14T01:43:39.775Z,5.47
2022-09-14T01:46:14.089Z,5.20
2022-09-14T01:48:52.739Z,5.87
2022-09-14T01:51:26.938Z,6.07
2022-09-14T01:54:06.660Z,5.87
2022-09-14T01:56:40.074Z,6.93
2022-09-14T01:59:21.651Z,6.40
2022-09-14T02:01:57.822Z,6.43
2022-09-14T02:04:40.916Z,6.60
2022-09-14T02:07:09.978Z,5.90
2022-09-14T02:09:45.785Z,6.00
2022-09-14T02:12:14.465Z,6.30
2022-09-14T02:14:51.639Z,5.17
2022-09-14T02:17:20.187Z,4.70
2022-09-14T02:20:04.954Z,4.70
2022-09-14T02:22:40.454Z,4.70
2022-09-14T02:25:15.761Z,4.30
2022-09-14T02:27:44.113Z,4.30
2022-09-14T02:30:20.802Z,4.27
2022-09-14T02:33:03.144Z,4.30
2022-09-14T02:35:45.596Z,4.47
2022-09-14T02:38:28.216Z,5.10
2022-09-14T02:41:05.681Z,6.20
2022-09-14T02:43:42.913Z,5.87
2022-09-14T02:46:25.907Z,5.13
2022-09-14T02:49:01.446Z,5.70
2022-09-14T02:51:41.808Z,6.43
2022-09-14T02:54:15.008Z,6.10
2022-09-14T02:56:51.674Z,5.87
2022-09-14T02:59:20.078Z,5.50
2022-09-14T03:01:56.690Z,5.97
2022-09-14T03:04:25.075Z,5.60
2022-09-14T03:06:59.699Z,6.10
2022-09-14T03:09:28.531Z,6.20
2022-09-14T03:12:03.699Z,5.90
2022-09-14T03:14:32.279Z,6.33
2022-09-14T03:17:08.880Z,6.10
2022-09-14T03:19:56.801Z,6.43
2022-09-14T03:22:31.963Z,6.03
2022-09-14T03:25:00.381Z,5.93
2022-09-14T03:27:35.849Z,6.87
2022-09-14T03:30:05.245Z,6.97
2022-09-14T03:32:41.831Z,6.53
2022-09-14T03:35:11.071Z,6.93
2022-09-14T03:37:46.746Z,6.80
2022-09-14T03:40:21.932Z,7.40
2022-09-14T03:42:58.865Z,8.10
2022-09-14T03:45:29.073Z,8.13
2022-09-14T03:48:05.754Z,8.77
2022-09-14T03:50:34.324Z,9.73
2022-09-14T03:53:11.979Z,9.87
2022-09-14T03:55:44.790Z,10.63
2022-09-14T03:58:19.679Z,11.67
2022-09-14T04:00:48.030Z,13.97
2022-09-14T04:03:24.867Z,14.77
2022-09-14T04:05:57.301Z,14.10
2022-09-14T04:08:32.781Z,14.00
2022-09-14T04:11:01.524Z,14.57
2022-09-14T04:13:36.802Z,12.93
2022-09-14T04:16:05.783Z,13.60
2022-09-14T04:18:41.677Z,12.87
2022-09-14T04:21:19.371Z,13.10
2022-09-14T04:24:14.173Z,11.93
2022-09-14T04:26:43.509Z,11.73
2022-09-14T04:29:20.756Z,12.70
2022-09-14T04:31:49.123Z,13.17
2022-09-14T04:34:25.910Z,13.80
2022-09-14T04:36:54.263Z,13.37
2022-09-14T04:39:29.839Z,14.30
2022-09-14T04:41:58.432Z,14.53
2022-09-14T04:44:33.889Z,13.53
2022-09-14T04:47:02.387Z,14.87
2022-09-14T04:49:38.885Z,14.23
2022-09-14T04:52:07.373Z,14.07
2022-09-14T04:54:43.750Z,13.77
2022-09-14T04:57:20.160Z,14.77
2022-09-14T04:59:48.658Z,14.77
2022-09-14T05:02:23.857Z,13.77
2022-09-14T05:04:53.927Z,14.87
2022-09-14T05:07:28.917Z,13.53
2022-09-14T05:09:58.287Z,14.60
2022-09-14T05:12:32.851Z,13.60
2022-09-14T05:15:11.165Z,13.57
2022-09-14T05:17:45.750Z,14.20
2022-09-14T05:20:22.241Z,13.10
2022-09-14T05:22:57.829Z,12.70
2022-09-14T05:25:27.890Z,12.47
2022-09-14T05:28:03.004Z,12.83
2022-09-14T05:30:31.654Z,13.17
2022-09-14T05:33:06.812Z,14.27
2022-09-14T05:35:37.007Z,13.27
2022-09-14T05:38:12.165Z,14.60
2022-09-14T05:40:40.562Z,13.87
2022-09-14T05:43:15.980Z,13.80
2022-09-14T05:45:44.564Z,14.07
2022-09-14T05:48:19.098Z,15.27
2022-09-14T05:50:49.074Z,13.30
2022-09-14T05:53:23.824Z,14.67
2022-09-14T05:56:01.167Z,15.50
2022-09-14T05:58:35.885Z,15.40
2022-09-14T06:01:09.433Z,16.10
2022-09-14T06:03:44.859Z,17.27
2022-09-14T06:06:17.638Z,16.00
2022-09-14T06:08:53.992Z,14.23
2022-09-14T06:11:25.528Z,15.77
2022-09-14T06:14:01.906Z,16.10
2022-09-14T06:16:31.499Z,14.57
2022-09-14T06:19:08.003Z,16.97
2022-09-14T06:21:44.636Z,19.07
2022-09-14T06:24:19.898Z,18.83
2022-09-14T06:26:48.579Z,21.33
2022-09-14T06:29:24.001Z,21.90
2022-09-14T06:31:52.415Z,20.87
2022-09-14T06:34:28.012Z,20.97
2022-09-14T06:36:57.691Z,20.70
2022-09-14T06:39:32.940Z,21.33
2022-09-14T06:42:01.458Z,20.80
2022-09-14T06:44:36.821Z,21.37
2022-09-14T06:47:05.889Z,20.27
2022-09-14T06:49:40.817Z,19.07
2022-09-14T06:52:10.806Z,20.20
2022-09-14T06:54:46.042Z,19.83
2022-09-14T06:57:14.574Z,18.67
2022-09-14T06:59:48.977Z,19.90
2022-09-14T07:02:17.672Z,17.73
2022-09-14T07:04:52.863Z,18.23
2022-09-14T07:07:22.723Z,18.37
2022-09-14T07:09:59.850Z,19.20
2022-09-14T07:12:35.936Z,17.67
2022-09-14T07:15:04.850Z,18.87
2022-09-14T07:17:39.872Z,18.57
2022-09-14T07:20:15.702Z,17.63
2022-09-14T07:22:53.019Z,16.27
2022-09-14T07:25:21.384Z,16.93
2022-09-14T07:27:55.896Z,16.23
2022-09-14T07:30:25.055Z,14.93
2022-09-14T07:32:59.956Z,14.73
2022-09-14T07:35:28.492Z,15.77
2022-09-14T07:38:05.235Z,14.87
2022-09-14T07:40:33.822Z,14.70
2022-09-14T07:43:08.904Z,14.33
2022-09-14T07:45:38.114Z,14.80
2022-09-14T07:48:14.260Z,13.73
2022-09-14T07:50:42.799Z,14.70
2022-09-14T07:53:18.954Z,14.57
2022-09-14T07:55:47.415Z,15.17
2022-09-14T07:58:21.919Z,14.67
2022-09-14T08:00:50.657Z,14.17
2022-09-14T08:03:26.129Z,14.93
2022-09-14T08:06:02.202Z,14.77
2022-09-14T08:08:40.029Z,15.30
2022-09-14T08:11:11.633Z,14.90
2022-09-14T08:13:47.926Z,14.17
2022-09-14T08:16:18.475Z,14.13
2022-09-14T08:18:53.966Z,15.07
2022-09-14T08:21:31.000Z,14.03
2022-09-14T08:24:08.906Z,12.90
2022-09-14T08:26:37.818Z,12.80
2022-09-14T08:29:13.946Z,14.10
2022-09-14T08:31:44.461Z,13.53
2022-09-14T08:34:20.123Z,13.60
2022-09-14T08:36:48.982Z,12.80
2022-09-14T08:39:26.150Z,13.43
2022-09-14T08:41:56.713Z,13.23
2022-09-14T08:44:37.004Z,14.03
2022-09-14T08:47:07.734Z,13.40
2022-09-14T08:49:51.153Z,13.33
2022-09-14T08:52:25.789Z,13.40
2022-09-14T08:55:05.192Z,13.30
2022-09-14T08:57:42.293Z,12.93
2022-09-14T09:00:21.183Z,12.97
2022-09-14T09:03:24.045Z,12.00
2022-09-14T09:06:00.147Z,12.10
2022-09-14T09:08:41.270Z,12.80
2022-09-14T09:11:23.150Z,12.67
2022-09-14T09:13:53.456Z,12.77
2022-09-14T09:16:32.047Z,11.60
2022-09-14T09:19:04.549Z,12.83
2022-09-14T09:21:54.308Z,12.47
2022-09-14T09:24:28.744Z,12.63
2022-09-14T09:27:05.098Z,12.77
2022-09-14T09:29:33.473Z,12.67
2022-09-14T09:32:09.144Z,13.20
2022-09-14T09:34:37.504Z,13.17
2022-09-14T09:37:13.228Z,13.30
2022-09-14T09:39:42.914Z,12.63
2022-09-14T09:42:29.419Z,11.73
2022-09-14T09:45:03.620Z,12.03
2022-09-14T09:47:44.008Z,12.93
2022-09-14T09:50:20.065Z,12.50
2022-09-14T09:52:58.034Z,12.50
2022-09-14T09:55:31.916Z,12.33
2022-09-14T09:58:29.116Z,12.03
2022-09-14T10:00:58.993Z,12.60
2022-09-14T10:03:43.273Z,11.93
2022-09-14T10:06:14.870Z,11.40
2022-09-14T10:08:52.048Z,10.73
2022-09-14T10:11:36.722Z,10.93
2022-09-14T10:14:27.097Z,10.40
2022-09-14T10:17:12.191Z,10.97
2022-09-14T10:20:05.095Z,10.60
2022-09-14T10:22:41.098Z,10.33
2022-09-14T10:25:23.918Z,9.97
2022-09-14T10:28:07.116Z,9.73
2022-09-14T10:30:44.142Z,10.23
2022-09-14T10:33:22.101Z,10.00
2022-09-14T10:36:06.829Z,9.53
2022-09-14T10:38:48.303Z,9.27
2022-09-14T10:41:29.391Z,9.53
2022-09-14T10:44:29.234Z,10.70
2022-09-14T10:47:15.644Z,10.50
2022-09-14T10:50:05.146Z,11.70
2022-09-14T10:52:43.329Z,11.83
2022-09-14T10:55:39.066Z,12.50
2022-09-14T10:58:27.715Z,12.40
2022-09-14T11:01:12.288Z,12.33
2022-09-14T11:03:55.971Z,12.37
2022-09-14T11:06:41.302Z,11.70
2022-09-14T11:09:22.365Z,11.97
2022-09-14T11:12:14.390Z,11.30
2022-09-14T11:14:59.965Z,11.37
2022-09-14T11:17:52.146Z,12.87
2022-09-14T11:20:50.165Z,12.10
2022-09-14T11:23:35.330Z,13.07
2022-09-14T11:26:10.813Z,14.07
2022-09-14T11:28:50.266Z,13.37
2022-09-14T11:31:23.272Z,14.63
2022-09-14T11:34:04.196Z,14.37
2022-09-14T11:36:37.808Z,13.27
2022-09-14T11:39:20.159Z,12.77
2022-09-14T11:41:53.782Z,13.57
2022-09-14T11:44:33.170Z,15.43
2022-09-14T11:47:05.461Z,14.70
2022-09-14T11:49:50.418Z,14.33
2022-09-14T11:52:22.614Z,15.73
2022-09-14T11:54:58.227Z,15.47
2022-09-14T11:57:29.109Z,12.90
2022-09-14T12:00:05.459Z,10.67
2022-09-14T12:03:00.358Z,8.63
2022-09-14T12:05:41.171Z,8.17
2022-09-14T12:08:38.040Z,9.63
2022-09-14T12:11:33.223Z,8.50
2022-09-14T12:14:32.857Z,8.40
2022-09-14T12:20:59.182Z,7.50
2022-09-14T12:23:50.259Z,6.87
2022-09-14T12:26:41.124Z,7.10
2022-09-14T12:29:40.230Z,6.40
2022-09-14T12:32:43.103Z,5.83
2022-09-14T12:35:44.140Z,4.97
2022-09-14T12:38:42.022Z,4.87
2022-09-14T12:41:50.231Z,5.10
2022-09-14T12:44:37.851Z,5.03
2022-09-14T12:47:47.582Z,5.17
2022-09-14T12:50:18.783Z,5.40
2022-09-14T12:53:17.335Z,5.23
2022-09-14T12:55:54.051Z,5.77
2022-09-14T12:58:51.185Z,4.00
2022-09-14T13:01:30.674Z,3.50
2022-09-14T13:04:06.232Z,2.60
2022-09-14T13:06:44.600Z,2.60
2022-09-14T13:09:27.423Z,2.83
2022-09-14T13:11:58.640Z,2.47
2022-09-14T13:14:37.462Z,2.50
2022-09-14T13:17:14.753Z,2.40
2022-09-14T13:19:50.220Z,2.40
2022-09-14T13:22:27.721Z,2.67
2022-09-14T13:25:03.209Z,2.27
2022-09-14T13:27:34.702Z,3.10
2022-09-14T13:30:12.453Z,3.07
2022-09-14T13:32:49.966Z,2.70
2022-09-14T13:35:28.294Z,2.47
2022-09-14T13:37:57.464Z,2.70
2022-09-14T13:40:34.381Z,2.93
2022-09-14T13:43:03.036Z,3.10
2022-09-14T13:45:40.581Z,2.90
2022-09-14T13:48:14.961Z,3.00
2022-09-14T13:50:51.435Z,2.80
2022-09-14T13:53:40.563Z,4.97
2022-09-14T13:56:26.351Z,2.60
2022-09-14T13:59:23.312Z,2.30
2022-09-14T14:01:55.954Z,2.30
2022-09-14T14:04:42.273Z,2.77
2022-09-14T14:07:19.328Z,2.47
2022-09-14T14:09:57.383Z,2.37
2022-09-14T14:12:28.656Z,2.50
2022-09-14T14:15:05.604Z,2.53
2022-09-14T14:17:37.006Z,2.33
2022-09-14T14:20:47.494Z,2.70
2022-09-14T14:23:24.336Z,2.57
2022-09-14T14:26:02.466Z,2.40
2022-09-14T14:28:32.711Z,2.97
2022-09-14T14:31:09.275Z,2.90
2022-09-14T14:33:45.798Z,3.17
2022-09-14T14:36:23.615Z,3.03
2022-09-14T14:38:52.057Z,3.10
2022-09-14T14:41:29.500Z,3.50
2022-09-14T14:43:58.352Z,4.03
2022-09-14T14:46:33.392Z,5.87
2022-09-14T14:49:02.053Z,7.10
2022-09-14T14:51:38.660Z,7.97
2022-09-14T14:54:07.470Z,7.93
2022-09-14T14:56:42.327Z,7.27
2022-09-14T14:59:23.645Z,6.93
2022-09-14T15:02:02.834Z,7.03
2022-09-14T15:04:30.909Z,6.43
2022-09-14T15:07:07.487Z,6.70
2022-09-14T15:09:36.203Z,5.43
2022-09-14T15:12:11.351Z,5.70
2022-09-14T15:14:39.731Z,6.17
2022-09-14T15:17:14.523Z,7.10
2022-09-14T15:19:42.909Z,6.07
2022-09-14T15:22:26.394Z,6.10
2022-09-14T15:24:54.829Z,5.50
2022-09-14T15:27:29.387Z,4.80
2022-09-14T15:29:58.097Z,5.23
2022-09-14T15:32:33.511Z,5.73
2022-09-14T15:35:02.824Z,5.47
2022-09-14T15:37:39.346Z,5.33
2022-09-14T15:40:08.924Z,4.87
2022-09-14T15:42:44.385Z,5.47
2022-09-14T15:45:13.752Z,5.20
2022-09-14T15:47:50.371Z,4.60
2022-09-14T15:50:19.145Z,5.17
2022-09-14T15:52:59.183Z,5.07
2022-09-14T15:55:30.408Z,5.20
2022-09-14T15:58:06.107Z,5.43
2022-09-14T16:00:34.667Z,5.53
2022-09-14T16:03:10.376Z,5.50
2022-09-14T16:05:39.791Z,5.87
2022-09-14T16:08:16.515Z,6.90
2022-09-14T16:10:45.035Z,7.20
2022-09-14T16:13:20.326Z,7.30
2022-09-14T16:15:48.694Z,7.77
2022-09-14T16:18:23.386Z,7.40
2022-09-14T16:21:17.546Z,7.27
2022-09-14T16:23:56.374Z,7.80
2022-09-14T16:26:27.241Z,8.10
2022-09-14T16:29:03.568Z,8.30
2022-09-14T16:31:34.642Z,8.07
2022-09-14T16:34:16.579Z,8.53
2022-09-14T16:36:45.722Z,7.60
2022-09-14T16:39:23.555Z,7.93
2022-09-14T16:41:52.830Z,8.03
2022-09-14T16:44:29.491Z,7.67
2022-09-14T16:46:59.337Z,7.77
2022-09-14T16:49:34.794Z,8.13
2022-09-14T16:52:03.844Z,7.67
2022-09-14T16:54:40.611Z,8.00
2022-09-14T16:57:09.260Z,7.47
2022-09-14T16:59:44.657Z,7.30
2022-09-14T17:02:13.557Z,7.23
2022-09-14T17:04:48.775Z,8.13
2022-09-14T17:07:17.420Z,7.83
2022-09-14T17:09:54.613Z,7.47
2022-09-14T17:12:23.724Z,6.77
2022-09-14T17:14:58.600Z,7.80
2022-09-14T17:17:27.072Z,7.90
2022-09-14T17:20:02.630Z,8.07
2022-09-14T17:22:38.054Z,7.83
2022-09-14T17:25:17.099Z,7.37
2022-09-14T17:27:45.500Z,7.97
2022-09-14T17:30:21.435Z,8.10
2022-09-14T17:32:50.086Z,8.17
2022-09-14T17:35:25.615Z,8.17
2022-09-14T17:38:00.594Z,9.03
2022-09-14T17:40:32.858Z,8.93
2022-09-14T17:43:07.610Z,8.90
2022-09-14T17:45:35.947Z,9.37
2022-09-14T17:48:11.522Z,8.43
2022-09-14T17:50:41.464Z,8.27
2022-09-14T17:53:17.358Z,8.80
2022-09-14T17:55:48.324Z,8.90
2022-09-14T17:58:23.835Z,9.40
2022-09-14T18:00:52.205Z,9.17
2022-09-14T18:03:27.766Z,9.90
2022-09-14T18:05:56.453Z,10.77
2022-09-14T18:08:34.465Z,10.93
2022-09-14T18:11:23.796Z,9.77
2022-09-14T18:14:05.684Z,9.57
2022-09-14T18:16:35.136Z,9.60
2022-09-14T18:19:10.478Z,9.50
2022-09-14T18:21:51.561Z,8.00
2022-09-14T18:24:27.490Z,7.77
2022-09-14T18:26:57.609Z,7.90
2022-09-14T18:29:33.707Z,8.03
2022-09-14T18:32:02.256Z,6.50
2022-09-14T18:34:39.505Z,6.27
2022-09-14T18:37:08.197Z,5.87
2022-09-14T18:39:42.545Z,5.70
2022-09-14T18:42:12.670Z,6.20
2022-09-14T18:44:47.503Z,6.67
2022-09-14T18:47:18.992Z,6.97
2022-09-14T18:49:53.515Z,6.87
2022-09-14T18:52:21.837Z,7.40
2022-09-14T18:54:56.716Z,7.60
2022-09-14T18:57:26.863Z,8.10
2022-09-14T19:00:01.625Z,8.20
2022-09-14T19:02:30.223Z,8.17
2022-09-14T19:05:05.531Z,9.67
2022-09-14T19:07:36.199Z,10.40
2022-09-14T19:10:11.964Z,13.20
2022-09-14T19:12:42.017Z,16.03
2022-09-14T19:15:18.695Z,16.67
2022-09-14T19:17:47.194Z,16.70
2022-09-14T19:20:22.728Z,17.13
2022-09-14T19:22:57.884Z,16.07
2022-09-14T19:25:32.546Z,16.37
2022-09-14T19:28:03.214Z,16.43
2022-09-14T19:30:38.583Z,17.83
2022-09-14T19:33:09.191Z,16.97
2022-09-14T19:35:44.788Z,14.57
2022-09-14T19:38:13.233Z,15.17
2022-09-14T19:40:48.580Z,14.47
2022-09-14T19:43:18.430Z,13.60
2022-09-14T19:45:56.701Z,14.47
2022-09-14T19:48:26.486Z,12.27
2022-09-14T19:51:04.764Z,13.67
2022-09-14T19:53:34.912Z,12.97
2022-09-14T19:56:12.979Z,13.33
2022-09-14T19:58:44.952Z,12.67
2022-09-14T20:01:19.827Z,13.07
2022-09-14T20:03:49.380Z,13.53
2022-09-14T20:06:29.807Z,14.33
2022-09-14T20:09:00.870Z,13.87
2022-09-14T20:11:37.607Z,14.40
2022-09-14T20:14:10.949Z,16.73
2022-09-14T20:16:47.616Z,17.43
2022-09-14T20:19:17.656Z,16.00
2022-09-14T20:21:56.509Z,15.03
2022-09-14T20:24:42.921Z,12.70
2022-09-14T20:27:11.514Z,12.67
2022-09-14T20:29:47.676Z,12.23
2022-09-14T20:32:20.026Z,12.40
2022-09-14T20:34:55.688Z,12.97
2022-09-14T20:37:24.261Z,12.83
2022-09-14T20:39:52.667Z,13.13
2022-09-14T20:42:27.658Z,13.57
2022-09-14T20:44:57.665Z,14.70
2022-09-14T20:47:32.671Z,13.87
2022-09-14T20:50:01.301Z,14.20
2022-09-14T20:52:36.611Z,12.93
2022-09-14T20:55:05.964Z,14.97
2022-09-14T20:57:40.824Z,13.50
2022-09-14T21:00:13.703Z,14.90
2022-09-14T21:02:48.854Z,16.80
2022-09-14T21:05:23.810Z,31.67
2022-09-14T21:07:56.272Z,34.77
2022-09-14T21:10:31.725Z,33.90
2022-09-14T21:13:00.549Z,32.17
2022-09-14T21:15:36.716Z,25.40
2022-09-14T21:18:06.222Z,25.77
2022-09-14T21:20:47.874Z,26.27
2022-09-14T21:23:22.895Z,26.90
2022-09-14T21:26:03.832Z,26.07
2022-09-14T21:28:32.650Z,22.30
2022-09-14T21:31:19.966Z,20.20
2022-09-14T21:33:50.067Z,23.17
2022-09-14T21:36:26.850Z,24.53
2022-09-14T21:38:57.532Z,21.17
2022-09-14T21:41:35.847Z,22.93
2022-09-14T21:44:04.841Z,37.50
2022-09-14T21:46:41.807Z,33.70
2022-09-14T21:49:15.237Z,60.87
2022-09-14T21:51:52.831Z,23.63
2022-09-14T21:54:22.446Z,23.80
2022-09-14T21:56:57.865Z,22.23
2022-09-14T21:59:26.227Z,17.57
2022-09-14T22:02:02.874Z,17.73
2022-09-14T22:04:31.170Z,16.93
2022-09-14T22:07:05.823Z,17.00
2022-09-14T22:09:34.349Z,16.53
2022-09-14T22:12:08.729Z,16.70
2022-09-14T22:14:37.255Z,17.17
2022-09-14T22:17:13.731Z,17.90
2022-09-14T22:19:42.056Z,17.90
2022-09-14T22:22:23.713Z,16.50
2022-09-14T22:24:52.246Z,16.77
2022-09-14T22:27:26.735Z,17.07
2022-09-14T22:29:55.178Z,17.43
2022-09-14T22:32:31.765Z,18.27
2022-09-14T22:35:00.165Z,17.70
2022-09-14T22:37:34.819Z,16.40
2022-09-14T22:40:03.763Z,17.67
2022-09-14T22:42:38.894Z,17.73
2022-09-14T22:45:08.067Z,17.17
2022-09-14T22:47:44.885Z,17.13
2022-09-14T22:50:13.272Z,17.60
2022-09-14T22:52:47.749Z,18.37
2022-09-14T22:55:16.183Z,17.80
2022-09-14T22:57:50.928Z,17.63
2022-09-14T23:00:20.989Z,18.20
2022-09-14T23:03:00.366Z,17.87
2022-09-14T23:05:28.793Z,15.60
2022-09-14T23:08:03.776Z,17.17
2022-09-14T23:10:32.801Z,17.37
2022-09-14T23:13:07.915Z,17.23
2022-09-14T23:15:39.566Z,17.40
2022-09-14T23:18:18.720Z,16.93
2022-09-14T23:20:49.021Z,16.13
2022-09-14T23:23:30.784Z,17.57
2022-09-14T23:26:04.034Z,18.13
2022-09-14T23:28:38.968Z,16.90
2022-09-14T23:31:07.997Z,17.97
2022-09-14T23:33:44.894Z,16.93
2022-09-14T23:36:13.239Z,17.50
2022-09-14T23:38:47.980Z,22.00
2022-09-14T23:41:16.692Z,17.30
2022-09-14T23:43:52.931Z,19.93
2022-09-14T23:46:24.418Z,18.80
2022-09-14T23:49:00.807Z,18.67
2022-09-14T23:51:29.239Z,16.97
2022-09-14T23:54:03.793Z,18.40
2022-09-14T23:56:32.107Z,18.83
2022-09-14T23:59:06.864Z,17.60
